sensor_id;sensor_type;location;lat;lon;timestamp;P1;durP1;ratioP1;P2;durP2;ratioP2
18449;SDS011;9354;50.194;7.690;2023-03-01T00:01:12;12.93;;;6.97;;
18449;SDS011;9354;50.194;7.690;2023-03-01T00:03:41;15.93;;;8.10;;
18449;SDS011;9354;50.194;7.690;2023-03-01T00:06:09;15.80;;;7.43;;
18449;SDS011;9354;50.194;7.690;2023-03-01T00:08:37;18.47;;;8.33;;
18449;SDS011;9354;50.194;7.690;2023-03-01T00:11:06;15.07;;;8.07;;
18449;SDS011;9354;50.194;7.690;2023-03-01T00:13:37;17.67;;;8.47;;
18449;SDS011;9354;50.194;7.690;2023-03-01T00:16:07;15.20;;;7.13;;
18449;SDS011;9354;50.194;7.690;2023-03-01T00:18:38;16.97;;;7.97;;
18449;SDS011;9354;50.194;7.690;2023-03-01T00:21:06;17.50;;;8.20;;
18449;SDS011;9354;50.194;7.690;2023-03-01T00:23:35;17.97;;;7.53;;
18449;SDS011;9354;50.194;7.690;2023-03-01T00:26:05;19.70;;;8.13;;
18449;SDS011;9354;50.194;7.690;2023-03-01T00:28:34;15.07;;;7.67;;
18449;SDS011;9354;50.194;7.690;2023-03-01T00:31:05;15.73;;;7.23;;
18449;SDS011;9354;50.194;7.690;2023-03-01T00:33:35;18.03;;;8.47;;
18449;SDS011;9354;50.194;7.690;2023-03-01T00:36:03;17.83;;;7.93;;
18449;SDS011;9354;50.194;7.690;2023-03-01T00:38:34;18.27;;;8.37;;
18449;SDS011;9354;50.194;7.690;2023-03-01T00:41:03;19.90;;;8.37;;
18449;SDS011;9354;50.194;7.690;2023-03-01T00:43:32;15.33;;;8.10;;
18449;SDS011;9354;50.194;7.690;2023-03-01T00:46:03;16.80;;;8.40;;
18449;SDS011;9354;50.194;7.690;2023-03-01T00:48:33;16.17;;;8.13;;
18449;SDS011;9354;50.194;7.690;2023-03-01T00:51:06;20.77;;;8.73;;
18449;SDS011;9354;50.194;7.690;2023-03-01T00:53:35;18.33;;;8.47;;
18449;SDS011;9354;50.194;7.690;2023-03-01T00:56:04;19.97;;;8.50;;
18449;SDS011;9354;50.194;7.690;2023-03-01T00:58:34;19.40;;;8.77;;
18449;SDS011;9354;50.194;7.690;2023-03-01T01:01:06;18.63;;;7.77;;
18449;SDS011;9354;50.194;7.690;2023-03-01T01:03:44;15.83;;;8.30;;
18449;SDS011;9354;50.194;7.690;2023-03-01T01:06:14;17.90;;;8.20;;
18449;SDS011;9354;50.194;7.690;2023-03-01T01:08:43;16.60;;;8.17;;
18449;SDS011;9354;50.194;7.690;2023-03-01T01:11:11;16.90;;;8.20;;
18449;SDS011;9354;50.194;7.690;2023-03-01T01:13:40;14.37;;;8.00;;
18449;SDS011;9354;50.194;7.690;2023-03-01T01:16:08;17.93;;;8.20;;
18449;SDS011;9354;50.194;7.690;2023-03-01T01:18:36;14.30;;;7.73;;
18449;SDS011;9354;50.194;7.690;2023-03-01T01:21:07;17.20;;;8.37;;
18449;SDS011;9354;50.194;7.690;2023-03-01T01:23:36;19.00;;;8.60;;
18449;SDS011;9354;50.194;7.690;2023-03-01T01:26:05;15.80;;;8.00;;
18449;SDS011;9354;50.194;7.690;2023-03-01T01:28:34;16.73;;;8.23;;
18449;SDS011;9354;50.194;7.690;2023-03-01T01:31:02;16.57;;;8.40;;
18449;SDS011;9354;50.194;7.690;2023-03-01T01:33:31;16.97;;;8.20;;
18449;SDS011;9354;50.194;7.690;2023-03-01T01:35:59;17.30;;;8.03;;
18449;SDS011;9354;50.194;7.690;2023-03-01T01:38:28;15.27;;;8.27;;
18449;SDS011;9354;50.194;7.690;2023-03-01T01:40:56;20.80;;;8.23;;
18449;SDS011;9354;50.194;7.690;2023-03-01T01:43:25;19.03;;;8.37;;
18449;SDS011;9354;50.194;7.690;2023-03-01T01:45:55;18.60;;;8.33;;
18449;SDS011;9354;50.194;7.690;2023-03-01T01:48:28;14.40;;;7.70;;
18449;SDS011;9354;50.194;7.690;2023-03-01T01:51:06;21.13;;;9.37;;
18449;SDS011;9354;50.194;7.690;2023-03-01T01:53:38;24.00;;;9.10;;
18449;SDS011;9354;50.194;7.690;2023-03-01T01:56:08;23.47;;;9.90;;
18449;SDS011;9354;50.194;7.690;2023-03-01T01:58:37;30.80;;;12.23;;
18449;SDS011;9354;50.194;7.690;2023-03-01T02:01:07;20.03;;;8.50;;
18449;SDS011;9354;50.194;7.690;2023-03-01T02:03:36;21.10;;;9.37;;
18449;SDS011;9354;50.194;7.690;2023-03-01T02:06:11;23.47;;;10.03;;
18449;SDS011;9354;50.194;7.690;2023-03-01T02:08:47;26.30;;;10.23;;
18449;SDS011;9354;50.194;7.690;2023-03-01T02:11:18;21.10;;;8.67;;
18449;SDS011;9354;50.194;7.690;2023-03-01T02:13:47;18.67;;;9.00;;
18449;SDS011;9354;50.194;7.690;2023-03-01T02:16:16;16.97;;;8.80;;
18449;SDS011;9354;50.194;7.690;2023-03-01T02:18:45;25.87;;;9.23;;
18449;SDS011;9354;50.194;7.690;2023-03-01T02:21:23;19.87;;;9.33;;
18449;SDS011;9354;50.194;7.690;2023-03-01T02:24:05;16.43;;;9.13;;
18449;SDS011;9354;50.194;7.690;2023-03-01T02:26:45;22.77;;;9.03;;
18449;SDS011;9354;50.194;7.690;2023-03-01T02:29:17;20.77;;;10.13;;
18449;SDS011;9354;50.194;7.690;2023-03-01T02:31:46;21.73;;;9.50;;
18449;SDS011;9354;50.194;7.690;2023-03-01T02:34:16;21.67;;;9.17;;
18449;SDS011;9354;50.194;7.690;2023-03-01T02:36:47;19.03;;;9.63;;
18449;SDS011;9354;50.194;7.690;2023-03-01T02:39:17;21.13;;;9.53;;
18449;SDS011;9354;50.194;7.690;2023-03-01T02:41:48;19.53;;;9.47;;
18449;SDS011;9354;50.194;7.690;2023-03-01T02:44:20;22.20;;;9.60;;
18449;SDS011;9354;50.194;7.690;2023-03-01T02:46:49;21.97;;;8.33;;
18449;SDS011;9354;50.194;7.690;2023-03-01T02:49:20;20.43;;;9.37;;
18449;SDS011;9354;50.194;7.690;2023-03-01T02:52:04;19.33;;;9.00;;
18449;SDS011;9354;50.194;7.690;2023-03-01T02:54:43;20.73;;;9.63;;
18449;SDS011;9354;50.194;7.690;2023-03-01T02:57:13;21.70;;;9.70;;
18449;SDS011;9354;50.194;7.690;2023-03-01T02:59:44;21.47;;;9.00;;
18449;SDS011;9354;50.194;7.690;2023-03-01T03:02:18;21.63;;;9.33;;
18449;SDS011;9354;50.194;7.690;2023-03-01T03:05:02;20.43;;;9.27;;
18449;SDS011;9354;50.194;7.690;2023-03-01T03:07:32;19.93;;;9.33;;
18449;SDS011;9354;50.194;7.690;2023-03-01T03:10:00;19.77;;;9.50;;
18449;SDS011;9354;50.194;7.690;2023-03-01T03:12:29;20.13;;;9.07;;
18449;SDS011;9354;50.194;7.690;2023-03-01T03:14:58;19.43;;;9.60;;
18449;SDS011;9354;50.194;7.690;2023-03-01T03:17:27;25.70;;;10.93;;
18449;SDS011;9354;50.194;7.690;2023-03-01T03:19:55;24.70;;;9.20;;
18449;SDS011;9354;50.194;7.690;2023-03-01T03:22:23;21.67;;;9.70;;
18449;SDS011;9354;50.194;7.690;2023-03-01T03:24:50;19.27;;;9.57;;
18449;SDS011;9354;50.194;7.690;2023-03-01T03:27:18;24.03;;;9.97;;
18449;SDS011;9354;50.194;7.690;2023-03-01T03:29:46;26.50;;;10.20;;
18449;SDS011;9354;50.194;7.690;2023-03-01T03:32:16;22.47;;;10.17;;
18449;SDS011;9354;50.194;7.690;2023-03-01T03:34:44;21.67;;;9.73;;
18449;SDS011;9354;50.194;7.690;2023-03-01T03:37:12;22.07;;;10.20;;
18449;SDS011;9354;50.194;7.690;2023-03-01T03:39:53;27.87;;;10.37;;
18449;SDS011;9354;50.194;7.690;2023-03-01T03:42:21;22.63;;;10.00;;
18449;SDS011;9354;50.194;7.690;2023-03-01T03:44:49;22.07;;;9.93;;
18449;SDS011;9354;50.194;7.690;2023-03-01T03:47:18;25.10;;;9.80;;
18449;SDS011;9354;50.194;7.690;2023-03-01T03:49:46;19.47;;;8.97;;
18449;SDS011;9354;50.194;7.690;2023-03-01T03:52:14;22.00;;;9.07;;
18449;SDS011;9354;50.194;7.690;2023-03-01T03:54:42;21.03;;;10.53;;
18449;SDS011;9354;50.194;7.690;2023-03-01T03:57:09;22.90;;;10.60;;
18449;SDS011;9354;50.194;7.690;2023-03-01T03:59:37;20.83;;;9.93;;
18449;SDS011;9354;50.194;7.690;2023-03-01T04:02:05;19.50;;;9.57;;
18449;SDS011;9354;50.194;7.690;2023-03-01T04:04:36;20.63;;;9.90;;
18449;SDS011;9354;50.194;7.690;2023-03-01T04:07:04;22.83;;;10.50;;
18449;SDS011;9354;50.194;7.690;2023-03-01T04:09:32;21.67;;;9.50;;
18449;SDS011;9354;50.194;7.690;2023-03-01T04:12:00;25.57;;;9.90;;
18449;SDS011;9354;50.194;7.690;2023-03-01T04:14:28;23.80;;;10.73;;
18449;SDS011;9354;50.194;7.690;2023-03-01T04:16:55;19.93;;;10.50;;
18449;SDS011;9354;50.194;7.690;2023-03-01T04:19:23;22.57;;;9.83;;
18449;SDS011;9354;50.194;7.690;2023-03-01T04:21:55;22.63;;;10.10;;
18449;SDS011;9354;50.194;7.690;2023-03-01T04:24:22;21.90;;;9.97;;
18449;SDS011;9354;50.194;7.690;2023-03-01T04:26:50;22.20;;;11.07;;
18449;SDS011;9354;50.194;7.690;2023-03-01T04:29:18;21.80;;;10.17;;
18449;SDS011;9354;50.194;7.690;2023-03-01T04:31:46;22.90;;;10.90;;
18449;SDS011;9354;50.194;7.690;2023-03-01T04:34:15;25.03;;;10.37;;
18449;SDS011;9354;50.194;7.690;2023-03-01T04:36:43;20.07;;;9.70;;
18449;SDS011;9354;50.194;7.690;2023-03-01T04:39:13;23.93;;;10.47;;
18449;SDS011;9354;50.194;7.690;2023-03-01T04:41:41;20.43;;;9.90;;
18449;SDS011;9354;50.194;7.690;2023-03-01T04:44:09;24.57;;;10.73;;
18449;SDS011;9354;50.194;7.690;2023-03-01T04:46:38;21.07;;;10.17;;
18449;SDS011;9354;50.194;7.690;2023-03-01T04:49:06;23.40;;;10.73;;
18449;SDS011;9354;50.194;7.690;2023-03-01T04:51:34;24.00;;;10.53;;
18449;SDS011;9354;50.194;7.690;2023-03-01T04:54:02;23.43;;;10.40;;
18449;SDS011;9354;50.194;7.690;2023-03-01T04:56:35;23.17;;;10.87;;
18449;SDS011;9354;50.194;7.690;2023-03-01T04:59:03;26.97;;;10.67;;
18449;SDS011;9354;50.194;7.690;2023-03-01T05:01:33;26.47;;;11.27;;
18449;SDS011;9354;50.194;7.690;2023-03-01T05:04:01;25.93;;;11.00;;
18449;SDS011;9354;50.194;7.690;2023-03-01T05:06:31;22.80;;;10.53;;
18449;SDS011;9354;50.194;7.690;2023-03-01T05:08:59;24.63;;;10.67;;
18449;SDS011;9354;50.194;7.690;2023-03-01T05:11:27;28.77;;;11.90;;
18449;SDS011;9354;50.194;7.690;2023-03-01T05:14:00;25.97;;;10.97;;
18449;SDS011;9354;50.194;7.690;2023-03-01T05:16:28;25.47;;;10.87;;
18449;SDS011;9354;50.194;7.690;2023-03-01T05:18:57;25.20;;;10.93;;
18449;SDS011;9354;50.194;7.690;2023-03-01T05:21:26;28.87;;;11.93;;
18449;SDS011;9354;50.194;7.690;2023-03-01T05:23:53;27.57;;;11.60;;
18449;SDS011;9354;50.194;7.690;2023-03-01T05:26:21;23.77;;;11.00;;
18449;SDS011;9354;50.194;7.690;2023-03-01T05:28:54;28.10;;;12.20;;
18449;SDS011;9354;50.194;7.690;2023-03-01T05:31:25;24.37;;;10.07;;
18449;SDS011;9354;50.194;7.690;2023-03-01T05:33:53;22.80;;;10.67;;
18449;SDS011;9354;50.194;7.690;2023-03-01T05:36:21;26.60;;;11.20;;
18449;SDS011;9354;50.194;7.690;2023-03-01T05:38:49;23.97;;;11.50;;
18449;SDS011;9354;50.194;7.690;2023-03-01T05:41:16;25.23;;;11.03;;
18449;SDS011;9354;50.194;7.690;2023-03-01T05:43:44;23.63;;;11.43;;
18449;SDS011;9354;50.194;7.690;2023-03-01T05:46:12;26.70;;;11.57;;
18449;SDS011;9354;50.194;7.690;2023-03-01T05:48:42;27.43;;;11.23;;
18449;SDS011;9354;50.194;7.690;2023-03-01T05:51:10;24.07;;;11.20;;
18449;SDS011;9354;50.194;7.690;2023-03-01T05:53:38;24.77;;;11.20;;
18449;SDS011;9354;50.194;7.690;2023-03-01T05:56:06;30.30;;;11.70;;
18449;SDS011;9354;50.194;7.690;2023-03-01T05:58:34;28.00;;;11.57;;
18449;SDS011;9354;50.194;7.690;2023-03-01T06:03:59;27.93;;;11.20;;
18449;SDS011;9354;50.194;7.690;2023-03-01T06:06:28;29.17;;;12.33;;
18449;SDS011;9354;50.194;7.690;2023-03-01T06:08:56;26.43;;;11.63;;
18449;SDS011;9354;50.194;7.690;2023-03-01T06:11:24;24.93;;;11.57;;
18449;SDS011;9354;50.194;7.690;2023-03-01T06:13:52;27.83;;;12.07;;
18449;SDS011;9354;50.194;7.690;2023-03-01T06:16:22;30.07;;;12.10;;
18449;SDS011;9354;50.194;7.690;2023-03-01T06:18:50;25.90;;;11.00;;
18449;SDS011;9354;50.194;7.690;2023-03-01T06:21:19;27.20;;;12.00;;
18449;SDS011;9354;50.194;7.690;2023-03-01T06:23:47;32.03;;;11.00;;
18449;SDS011;9354;50.194;7.690;2023-03-01T06:26:15;30.40;;;12.17;;
18449;SDS011;9354;50.194;7.690;2023-03-01T06:28:43;27.63;;;12.03;;
18449;SDS011;9354;50.194;7.690;2023-03-01T06:31:12;26.60;;;12.07;;
18449;SDS011;9354;50.194;7.690;2023-03-01T06:33:40;28.73;;;11.23;;
18449;SDS011;9354;50.194;7.690;2023-03-01T06:36:09;29.97;;;11.73;;
18449;SDS011;9354;50.194;7.690;2023-03-01T06:38:39;26.30;;;11.53;;
18449;SDS011;9354;50.194;7.690;2023-03-01T06:41:07;30.43;;;12.30;;
18449;SDS011;9354;50.194;7.690;2023-03-01T06:43:35;26.50;;;11.67;;
18449;SDS011;9354;50.194;7.690;2023-03-01T06:46:05;31.17;;;12.80;;
18449;SDS011;9354;50.194;7.690;2023-03-01T06:48:35;26.77;;;12.03;;
18449;SDS011;9354;50.194;7.690;2023-03-01T06:51:04;29.93;;;11.60;;
18449;SDS011;9354;50.194;7.690;2023-03-01T06:53:31;28.53;;;11.60;;
18449;SDS011;9354;50.194;7.690;2023-03-01T06:56:01;28.53;;;11.73;;
18449;SDS011;9354;50.194;7.690;2023-03-01T06:58:29;24.07;;;11.47;;
18449;SDS011;9354;50.194;7.690;2023-03-01T07:00:57;29.00;;;11.70;;
18449;SDS011;9354;50.194;7.690;2023-03-01T07:03:25;26.97;;;10.97;;
18449;SDS011;9354;50.194;7.690;2023-03-01T07:05:53;28.47;;;11.30;;
18449;SDS011;9354;50.194;7.690;2023-03-01T07:08:20;30.67;;;12.03;;
18449;SDS011;9354;50.194;7.690;2023-03-01T07:10:48;25.67;;;11.30;;
18449;SDS011;9354;50.194;7.690;2023-03-01T07:13:24;28.43;;;12.47;;
18449;SDS011;9354;50.194;7.690;2023-03-01T07:15:52;25.33;;;11.90;;
18449;SDS011;9354;50.194;7.690;2023-03-01T07:18:19;28.33;;;12.27;;
18449;SDS011;9354;50.194;7.690;2023-03-01T07:20:47;27.40;;;12.13;;
18449;SDS011;9354;50.194;7.690;2023-03-01T07:23:15;24.30;;;11.77;;
18449;SDS011;9354;50.194;7.690;2023-03-01T07:25:45;29.00;;;12.17;;
18449;SDS011;9354;50.194;7.690;2023-03-01T07:28:19;27.70;;;11.83;;
18449;SDS011;9354;50.194;7.690;2023-03-01T07:30:48;26.67;;;11.67;;
18449;SDS011;9354;50.194;7.690;2023-03-01T07:33:16;25.53;;;10.97;;
18449;SDS011;9354;50.194;7.690;2023-03-01T07:35:44;27.73;;;11.53;;
18449;SDS011;9354;50.194;7.690;2023-03-01T07:38:12;29.83;;;11.33;;
18449;SDS011;9354;50.194;7.690;2023-03-01T07:40:40;25.80;;;10.83;;
18449;SDS011;9354;50.194;7.690;2023-03-01T07:43:07;32.33;;;12.43;;
18449;SDS011;9354;50.194;7.690;2023-03-01T07:45:35;26.03;;;11.67;;
18449;SDS011;9354;50.194;7.690;2023-03-01T07:48:04;31.43;;;12.53;;
18449;SDS011;9354;50.194;7.690;2023-03-01T07:50:32;26.93;;;12.07;;
18449;SDS011;9354;50.194;7.690;2023-03-01T07:53:00;29.50;;;12.47;;
18449;SDS011;9354;50.194;7.690;2023-03-01T07:55:28;32.80;;;11.97;;
18449;SDS011;9354;50.194;7.690;2023-03-01T07:57:55;23.57;;;10.97;;
18449;SDS011;9354;50.194;7.690;2023-03-01T08:00:23;29.13;;;11.97;;
18449;SDS011;9354;50.194;7.690;2023-03-01T08:02:51;25.63;;;12.43;;
18449;SDS011;9354;50.194;7.690;2023-03-01T08:05:24;25.20;;;11.73;;
18449;SDS011;9354;50.194;7.690;2023-03-01T08:07:54;28.53;;;11.57;;
18449;SDS011;9354;50.194;7.690;2023-03-01T08:10:22;26.90;;;10.80;;
18449;SDS011;9354;50.194;7.690;2023-03-01T08:12:52;25.83;;;10.93;;
18449;SDS011;9354;50.194;7.690;2023-03-01T08:15:20;30.70;;;11.13;;
18449;SDS011;9354;50.194;7.690;2023-03-01T08:17:49;24.23;;;10.47;;
18449;SDS011;9354;50.194;7.690;2023-03-01T08:20:17;26.80;;;11.37;;
18449;SDS011;9354;50.194;7.690;2023-03-01T08:22:51;23.43;;;9.63;;
18449;SDS011;9354;50.194;7.690;2023-03-01T08:25:25;28.53;;;11.60;;
18449;SDS011;9354;50.194;7.690;2023-03-01T08:27:53;29.50;;;11.53;;
18449;SDS011;9354;50.194;7.690;2023-03-01T08:30:20;29.57;;;11.10;;
18449;SDS011;9354;50.194;7.690;2023-03-01T08:32:49;29.83;;;12.13;;
18449;SDS011;9354;50.194;7.690;2023-03-01T08:35:18;19.57;;;10.00;;
18449;SDS011;9354;50.194;7.690;2023-03-01T08:37:46;28.67;;;10.97;;
18449;SDS011;9354;50.194;7.690;2023-03-01T08:40:16;26.90;;;11.47;;
18449;SDS011;9354;50.194;7.690;2023-03-01T08:46:04;23.80;;;10.63;;
18449;SDS011;9354;50.194;7.690;2023-03-01T08:48:32;26.27;;;11.10;;
18449;SDS011;9354;50.194;7.690;2023-03-01T08:51:06;25.67;;;11.07;;
18449;SDS011;9354;50.194;7.690;2023-03-01T08:53:35;24.40;;;9.57;;
18449;SDS011;9354;50.194;7.690;2023-03-01T08:56:05;23.57;;;10.63;;
18449;SDS011;9354;50.194;7.690;2023-03-01T08:58:33;19.60;;;9.90;;
18449;SDS011;9354;50.194;7.690;2023-03-01T09:01:04;24.57;;;10.80;;
18449;SDS011;9354;50.194;7.690;2023-03-01T09:03:34;25.87;;;10.97;;
18449;SDS011;9354;50.194;7.690;2023-03-01T09:06:02;23.87;;;11.50;;
18449;SDS011;9354;50.194;7.690;2023-03-01T09:08:33;23.37;;;10.80;;
18449;SDS011;9354;50.194;7.690;2023-03-01T09:11:02;22.37;;;9.83;;
18449;SDS011;9354;50.194;7.690;2023-03-01T09:13:32;20.67;;;10.77;;
18449;SDS011;9354;50.194;7.690;2023-03-01T09:16:00;25.03;;;11.47;;
18449;SDS011;9354;50.194;7.690;2023-03-01T09:18:30;25.03;;;10.37;;
18449;SDS011;9354;50.194;7.690;2023-03-01T09:21:01;22.47;;;10.93;;
18449;SDS011;9354;50.194;7.690;2023-03-01T09:23:33;25.80;;;10.50;;
18449;SDS011;9354;50.194;7.690;2023-03-01T09:26:04;25.10;;;10.63;;
18449;SDS011;9354;50.194;7.690;2023-03-01T09:28:36;25.23;;;10.77;;
18449;SDS011;9354;50.194;7.690;2023-03-01T09:31:05;23.27;;;10.43;;
18449;SDS011;9354;50.194;7.690;2023-03-01T09:33:34;24.50;;;11.53;;
18449;SDS011;9354;50.194;7.690;2023-03-01T09:36:02;24.23;;;10.63;;
18449;SDS011;9354;50.194;7.690;2023-03-01T09:38:32;22.27;;;10.53;;
18449;SDS011;9354;50.194;7.690;2023-03-01T09:41:01;23.53;;;10.63;;
18449;SDS011;9354;50.194;7.690;2023-03-01T09:43:30;24.73;;;11.20;;
18449;SDS011;9354;50.194;7.690;2023-03-01T09:46:10;21.07;;;10.60;;
18449;SDS011;9354;50.194;7.690;2023-03-01T09:48:42;22.77;;;10.67;;
18449;SDS011;9354;50.194;7.690;2023-03-01T09:51:16;23.60;;;11.13;;
18449;SDS011;9354;50.194;7.690;2023-03-01T09:53:49;20.70;;;10.23;;
18449;SDS011;9354;50.194;7.690;2023-03-01T09:56:20;21.90;;;10.23;;
18449;SDS011;9354;50.194;7.690;2023-03-01T09:58:56;21.53;;;10.57;;
18449;SDS011;9354;50.194;7.690;2023-03-01T10:01:30;24.37;;;11.20;;
18449;SDS011;9354;50.194;7.690;2023-03-01T10:04:06;21.33;;;11.53;;
18449;SDS011;9354;50.194;7.690;2023-03-01T10:06:40;17.23;;;7.47;;
18449;SDS011;9354;50.194;7.690;2023-03-01T10:09:17;24.23;;;11.67;;
18449;SDS011;9354;50.194;7.690;2023-03-01T10:11:47;23.20;;;11.50;;
18449;SDS011;9354;50.194;7.690;2023-03-01T10:14:21;27.80;;;11.23;;
18449;SDS011;9354;50.194;7.690;2023-03-01T10:16:59;22.53;;;11.37;;
18449;SDS011;9354;50.194;7.690;2023-03-01T10:19:31;25.33;;;12.47;;
18449;SDS011;9354;50.194;7.690;2023-03-01T10:22:04;22.73;;;11.43;;
18449;SDS011;9354;50.194;7.690;2023-03-01T10:24:39;22.23;;;12.00;;
18449;SDS011;9354;50.194;7.690;2023-03-01T10:27:08;22.40;;;10.90;;
18449;SDS011;9354;50.194;7.690;2023-03-01T10:29:40;26.37;;;11.73;;
18449;SDS011;9354;50.194;7.690;2023-03-01T10:32:15;21.37;;;11.37;;
18449;SDS011;9354;50.194;7.690;2023-03-01T10:34:44;21.47;;;10.90;;
18449;SDS011;9354;50.194;7.690;2023-03-01T10:37:12;20.10;;;10.67;;
18449;SDS011;9354;50.194;7.690;2023-03-01T10:39:54;22.97;;;11.33;;
18449;SDS011;9354;50.194;7.690;2023-03-01T10:42:26;25.50;;;11.30;;
18449;SDS011;9354;50.194;7.690;2023-03-01T10:44:56;24.67;;;10.90;;
18449;SDS011;9354;50.194;7.690;2023-03-01T10:47:26;24.30;;;11.70;;
18449;SDS011;9354;50.194;7.690;2023-03-01T10:49:59;18.00;;;9.50;;
18449;SDS011;9354;50.194;7.690;2023-03-01T10:52:32;21.10;;;11.30;;
18449;SDS011;9354;50.194;7.690;2023-03-01T10:55:04;22.63;;;11.40;;
18449;SDS011;9354;50.194;7.690;2023-03-01T10:57:54;21.73;;;11.07;;
18449;SDS011;9354;50.194;7.690;2023-03-01T11:04:09;22.67;;;10.30;;
18449;SDS011;9354;50.194;7.690;2023-03-01T11:06:39;23.77;;;11.00;;
18449;SDS011;9354;50.194;7.690;2023-03-01T11:09:15;22.90;;;11.23;;
18449;SDS011;9354;50.194;7.690;2023-03-01T11:11:45;21.10;;;11.40;;
18449;SDS011;9354;50.194;7.690;2023-03-01T11:14:13;25.50;;;11.37;;
18449;SDS011;9354;50.194;7.690;2023-03-01T11:16:44;23.07;;;11.27;;
18449;SDS011;9354;50.194;7.690;2023-03-01T11:19:18;21.73;;;10.97;;
18449;SDS011;9354;50.194;7.690;2023-03-01T11:21:52;19.80;;;10.53;;
18449;SDS011;9354;50.194;7.690;2023-03-01T11:24:27;22.07;;;11.37;;
18449;SDS011;9354;50.194;7.690;2023-03-01T11:27:02;23.40;;;11.23;;
18449;SDS011;9354;50.194;7.690;2023-03-01T11:29:35;21.70;;;11.57;;
18449;SDS011;9354;50.194;7.690;2023-03-01T11:32:08;20.03;;;9.97;;
18449;SDS011;9354;50.194;7.690;2023-03-01T11:34:42;23.07;;;10.13;;
18449;SDS011;9354;50.194;7.690;2023-03-01T11:37:20;18.17;;;8.70;;
18449;SDS011;9354;50.194;7.690;2023-03-01T11:39:54;20.30;;;9.20;;
18449;SDS011;9354;50.194;7.690;2023-03-01T11:42:28;17.97;;;9.30;;
18449;SDS011;9354;50.194;7.690;2023-03-01T11:45:08;22.60;;;10.43;;
18449;SDS011;9354;50.194;7.690;2023-03-01T11:47:41;21.67;;;10.17;;
18449;SDS011;9354;50.194;7.690;2023-03-01T11:50:33;21.57;;;10.03;;
18449;SDS011;9354;50.194;7.690;2023-03-01T11:53:23;19.20;;;10.10;;
18449;SDS011;9354;50.194;7.690;2023-03-01T12:02:59;18.83;;;10.00;;
18449;SDS011;9354;50.194;7.690;2023-03-01T12:05:51;19.47;;;9.90;;
18449;SDS011;9354;50.194;7.690;2023-03-01T12:08:31;21.63;;;10.10;;
18449;SDS011;9354;50.194;7.690;2023-03-01T12:11:06;23.70;;;10.20;;
18449;SDS011;9354;50.194;7.690;2023-03-01T12:14:09;20.00;;;9.90;;
18449;SDS011;9354;50.194;7.690;2023-03-01T12:16:56;20.87;;;10.23;;
18449;SDS011;9354;50.194;7.690;2023-03-01T12:19:39;19.83;;;9.80;;
18449;SDS011;9354;50.194;7.690;2023-03-01T12:22:30;21.70;;;10.27;;
18449;SDS011;9354;50.194;7.690;2023-03-01T12:25:16;23.00;;;10.97;;
18449;SDS011;9354;50.194;7.690;2023-03-01T12:27:51;19.10;;;10.07;;
18449;SDS011;9354;50.194;7.690;2023-03-01T12:30:54;21.97;;;10.07;;
18449;SDS011;9354;50.194;7.690;2023-03-01T12:33:53;19.67;;;9.93;;
18449;SDS011;9354;50.194;7.690;2023-03-01T12:36:38;21.70;;;10.07;;
18449;SDS011;9354;50.194;7.690;2023-03-01T12:39:35;17.73;;;9.80;;
18449;SDS011;9354;50.194;7.690;2023-03-01T12:42:14;18.33;;;9.77;;
18449;SDS011;9354;50.194;7.690;2023-03-01T12:44:55;18.73;;;9.43;;
18449;SDS011;9354;50.194;7.690;2023-03-01T12:47:37;18.50;;;9.30;;
18449;SDS011;9354;50.194;7.690;2023-03-01T12:50:17;18.90;;;9.70;;
18449;SDS011;9354;50.194;7.690;2023-03-01T12:52:47;18.50;;;8.97;;
18449;SDS011;9354;50.194;7.690;2023-03-01T12:55:22;19.43;;;9.57;;
18449;SDS011;9354;50.194;7.690;2023-03-01T12:57:56;16.77;;;8.87;;
18449;SDS011;9354;50.194;7.690;2023-03-01T13:00:35;17.50;;;9.03;;
18449;SDS011;9354;50.194;7.690;2023-03-01T13:03:10;19.20;;;9.13;;
18449;SDS011;9354;50.194;7.690;2023-03-01T13:05:50;17.83;;;8.67;;
18449;SDS011;9354;50.194;7.690;2023-03-01T13:08:33;19.43;;;8.80;;
18449;SDS011;9354;50.194;7.690;2023-03-01T13:11:11;18.23;;;9.30;;
18449;SDS011;9354;50.194;7.690;2023-03-01T13:13:44;21.57;;;8.90;;
18449;SDS011;9354;50.194;7.690;2023-03-01T13:19:10;20.67;;;8.00;;
18449;SDS011;9354;50.194;7.690;2023-03-01T13:21:41;18.43;;;8.67;;
18449;SDS011;9354;50.194;7.690;2023-03-01T13:24:26;13.80;;;7.07;;
18449;SDS011;9354;50.194;7.690;2023-03-01T13:27:20;15.83;;;8.03;;
18449;SDS011;9354;50.194;7.690;2023-03-01T13:30:03;15.87;;;8.70;;
18449;SDS011;9354;50.194;7.690;2023-03-01T13:32:53;17.13;;;7.80;;
18449;SDS011;9354;50.194;7.690;2023-03-01T13:36:03;14.63;;;7.73;;
18449;SDS011;9354;50.194;7.690;2023-03-01T13:38:37;13.97;;;7.40;;
18449;SDS011;9354;50.194;7.690;2023-03-01T13:41:11;13.03;;;6.97;;
18449;SDS011;9354;50.194;7.690;2023-03-01T13:43:40;13.37;;;7.43;;
18449;SDS011;9354;50.194;7.690;2023-03-01T13:46:10;14.87;;;7.20;;
18449;SDS011;9354;50.194;7.690;2023-03-01T13:48:43;13.53;;;6.87;;
18449;SDS011;9354;50.194;7.690;2023-03-01T13:51:15;15.70;;;8.27;;
18449;SDS011;9354;50.194;7.690;2023-03-01T13:53:47;14.93;;;7.00;;
18449;SDS011;9354;50.194;7.690;2023-03-01T13:56:16;13.83;;;7.30;;
18449;SDS011;9354;50.194;7.690;2023-03-01T13:58:48;12.27;;;6.50;;
18449;SDS011;9354;50.194;7.690;2023-03-01T14:01:23;14.67;;;6.80;;
18449;SDS011;9354;50.194;7.690;2023-03-01T14:03:53;14.80;;;7.20;;
18449;SDS011;9354;50.194;7.690;2023-03-01T14:06:23;15.70;;;7.97;;
18449;SDS011;9354;50.194;7.690;2023-03-01T14:09:00;13.50;;;7.03;;
18449;SDS011;9354;50.194;7.690;2023-03-01T14:11:37;13.33;;;7.00;;
18449;SDS011;9354;50.194;7.690;2023-03-01T14:17:20;12.97;;;6.73;;
18449;SDS011;9354;50.194;7.690;2023-03-01T14:20:09;14.37;;;6.10;;
18449;SDS011;9354;50.194;7.690;2023-03-01T14:22:43;12.30;;;6.37;;
18449;SDS011;9354;50.194;7.690;2023-03-01T14:25:25;13.30;;;6.23;;
18449;SDS011;9354;50.194;7.690;2023-03-01T14:27:56;13.30;;;6.17;;
18449;SDS011;9354;50.194;7.690;2023-03-01T14:30:26;10.40;;;5.80;;
18449;SDS011;9354;50.194;7.690;2023-03-01T14:32:59;10.33;;;5.90;;
18449;SDS011;9354;50.194;7.690;2023-03-01T14:35:29;10.30;;;6.03;;
18449;SDS011;9354;50.194;7.690;2023-03-01T14:38:00;11.87;;;6.17;;
18449;SDS011;9354;50.194;7.690;2023-03-01T14:40:29;11.40;;;6.40;;
18449;SDS011;9354;50.194;7.690;2023-03-01T14:42:59;12.43;;;5.40;;
18449;SDS011;9354;50.194;7.690;2023-03-01T14:45:29;10.80;;;6.30;;
18449;SDS011;9354;50.194;7.690;2023-03-01T14:47:58;13.03;;;5.80;;
18449;SDS011;9354;50.194;7.690;2023-03-01T14:50:29;12.00;;;6.33;;
18449;SDS011;9354;50.194;7.690;2023-03-01T14:52:59;13.00;;;6.00;;
18449;SDS011;9354;50.194;7.690;2023-03-01T14:55:30;10.53;;;5.87;;
18449;SDS011;9354;50.194;7.690;2023-03-01T14:58:02;12.27;;;5.70;;
18449;SDS011;9354;50.194;7.690;2023-03-01T15:00:32;14.70;;;6.67;;
18449;SDS011;9354;50.194;7.690;2023-03-01T15:03:04;15.03;;;6.03;;
18449;SDS011;9354;50.194;7.690;2023-03-01T15:09:02;9.27;;;5.37;;
18449;SDS011;9354;50.194;7.690;2023-03-01T15:11:31;10.17;;;5.80;;
18449;SDS011;9354;50.194;7.690;2023-03-01T15:14:05;12.00;;;5.37;;
18449;SDS011;9354;50.194;7.690;2023-03-01T15:16:54;12.07;;;5.13;;
18449;SDS011;9354;50.194;7.690;2023-03-01T15:19:23;12.90;;;6.43;;
18449;SDS011;9354;50.194;7.690;2023-03-01T15:21:55;13.03;;;5.77;;
18449;SDS011;9354;50.194;7.690;2023-03-01T15:27:51;12.10;;;6.23;;
18449;SDS011;9354;50.194;7.690;2023-03-01T15:30:22;13.13;;;5.93;;
18449;SDS011;9354;50.194;7.690;2023-03-01T15:35:46;11.70;;;5.70;;
18449;SDS011;9354;50.194;7.690;2023-03-01T15:41:46;12.87;;;5.50;;
18449;SDS011;9354;50.194;7.690;2023-03-01T15:44:17;11.07;;;6.00;;